Time;durP1;ratioP1;P1;durP2;ratioP2;P2;SDS_P1;SDS_P2;PMS_P1;PMS_P2;Temp;Humidity;BMP_temperature;BMP_pressure;BME280_temperature;BME280_humidity;BME280_pressure;Samples;Min_cycle;Max_cycle;Signal;HPM_P1;HPM_P2
2022/11/26 00:01:16;;;;;;;10.82;7.43;;;6.50;90.30;;;;;;5033671;28;20025;-57
2022/11/26 00:03:42;;;;;;;10.80;7.18;;;6.60;90.30;;;;;;5033438;28;20550;-57
2022/11/26 00:06:21;;;;;;;10.93;6.75;;;6.60;90.30;;;;;;5032160;28;20053;-57
2022/11/26 00:08:47;;;;;;;9.60;6.88;;;6.60;90.20;;;;;;5031899;28;20021;-57
2022/11/26 00:11:15;;;;;;;10.02;6.97;;;6.60;90.30;;;;;;5032047;28;20104;-56
2022/11/26 00:13:40;;;;;;;9.20;6.85;;;6.60;90.30;;;;;;5033278;28;20030;-56
2022/11/26 00:16:11;;;;;;;8.73;5.88;;;6.60;90.30;;;;;;5032562;28;20362;-56
2022/11/26 00:18:36;;;;;;;8.97;6.27;;;6.60;90.30;;;;;;5032264;28;20549;-57
2022/11/26 00:21:03;;;;;;;11.18;6.95;;;6.60;90.30;;;;;;5033969;28;20041;-59
2022/11/26 00:23:28;;;;;;;10.63;7.15;;;6.60;90.30;;;;;;5014817;28;20033;-57
2022/11/26 00:26:00;;;;;;;11.40;8.10;;;6.70;90.30;;;;;;5032534;28;20025;-57
2022/11/26 00:28:33;;;;;;;10.27;6.88;;;6.60;90.20;;;;;;5030884;28;20108;-57
2022/11/26 00:31:02;;;;;;;9.75;7.13;;;6.60;90.20;;;;;;5027832;28;20068;-56
2022/11/26 00:33:29;;;;;;;10.10;7.10;;;6.70;90.20;;;;;;5025986;28;20025;-57
2022/11/26 00:36:00;;;;;;;11.32;7.40;;;6.60;90.20;;;;;;5032036;28;20145;-56
2022/11/26 00:38:26;;;;;;;10.32;7.50;;;6.70;90.30;;;;;;5032137;28;20075;-57
2022/11/26 00:40:52;;;;;;;12.88;7.60;;;6.70;90.30;;;;;;5031543;28;20037;-57
2022/11/26 00:43:18;;;;;;;12.25;8.07;;;6.70;90.20;;;;;;5032835;28;20025;-57
2022/11/26 00:45:44;;;;;;;9.95;6.75;;;6.70;90.20;;;;;;5032816;28;20040;-56
2022/11/26 00:48:09;;;;;;;11.18;8.00;;;6.70;90.30;;;;;;5032899;28;20022;-57
2022/11/26 00:50:45;;;;;;;12.32;7.88;;;6.70;90.30;;;;;;5033741;28;20028;-56
2022/11/26 00:53:17;;;;;;;12.57;8.52;;;6.70;90.20;;;;;;5017674;28;20033;-56
2022/11/26 00:55:47;;;;;;;11.48;8.35;;;6.70;90.20;;;;;;5023512;28;20108;-56
2022/11/26 00:58:25;;;;;;;10.25;7.82;;;6.70;90.30;;;;;;5032485;28;20018;-56
2022/11/26 01:00:52;;;;;;;10.40;7.15;;;6.70;90.20;;;;;;5032245;28;20045;-57
2022/11/26 01:03:17;;;;;;;10.25;6.88;;;6.70;90.30;;;;;;5033156;28;20403;-56
2022/11/26 01:05:43;;;;;;;12.20;7.38;;;6.70;90.30;;;;;;5033428;28;20108;-57
2022/11/26 01:08:30;;;;;;;13.07;7.82;;;6.70;90.20;;;;;;5030165;28;20057;-56
2022/11/26 01:10:57;;;;;;;10.30;7.43;;;6.70;90.20;;;;;;5029615;28;20054;-57
2022/11/26 01:13:23;;;;;;;11.15;7.68;;;6.70;90.30;;;;;;5032867;28;20535;-57
2022/11/26 01:15:48;;;;;;;10.68;7.43;;;6.70;90.30;;;;;;5033182;28;20104;-59
2022/11/26 01:18:20;;;;;;;11.00;7.70;;;6.70;90.30;;;;;;5031947;28;20085;-58
2022/11/26 01:20:46;;;;;;;11.73;7.60;;;6.70;90.30;;;;;;5035805;28;20021;-56
2022/11/26 01:23:13;;;;;;;12.15;7.78;;;6.70;90.30;;;;;;5035371;28;20034;-59
2022/11/26 01:25:40;;;;;;;9.77;6.97;;;6.70;90.20;;;;;;5036097;28;20026;-56
2022/11/26 01:28:13;;;;;;;10.40;6.90;;;6.70;90.20;;;;;;5035357;28;20060;-56
2022/11/26 01:30:39;;;;;;;11.68;8.30;;;6.70;90.20;;;;;;5036533;28;20071;-56
2022/11/26 01:33:05;;;;;;;12.70;8.00;;;6.70;90.30;;;;;;5035055;28;20033;-56
2022/11/26 01:35:31;;;;;;;13.07;8.55;;;6.70;90.20;;;;;;5036623;28;20045;-55
2022/11/26 01:37:57;;;;;;;11.63;7.18;;;6.70;90.20;;;;;;5035614;28;20026;-59
2022/11/26 01:40:25;;;;;;;11.60;7.95;;;6.70;90.20;;;;;;5036228;28;20017;-56
2022/11/26 01:42:59;;;;;;;12.32;7.93;;;6.70;90.30;;;;;;5034899;28;20037;-57
2022/11/26 01:45:25;;;;;;;10.68;7.63;;;6.70;90.20;;;;;;5036946;28;20022;-57
2022/11/26 01:47:51;;;;;;;13.48;8.02;;;6.70;90.30;;;;;;5035535;28;20037;-57
2022/11/26 01:50:35;;;;;;;11.35;8.07;;;6.70;90.30;;;;;;5034398;28;20391;-56
2022/11/26 01:53:14;;;;;;;11.85;8.05;;;6.70;90.20;;;;;;5034581;28;20529;-57
2022/11/26 01:55:45;;;;;;;11.68;8.32;;;6.70;90.40;;;;;;5035561;28;20017;-56
2022/11/26 01:58:15;;;;;;;11.93;8.17;;;6.70;90.40;;;;;;5036084;28;20036;-56
2022/11/26 02:00:41;;;;;;;11.95;7.22;;;6.70;90.40;;;;;;5034876;28;20045;-57
2022/11/26 02:03:08;;;;;;;11.38;7.45;;;6.70;90.50;;;;;;5035456;28;20030;-57
2022/11/26 02:05:41;;;;;;;10.68;7.47;;;6.70;90.50;;;;;;4998449;28;20029;-56
2022/11/26 02:08:08;;;;;;;12.23;8.20;;;6.70;90.40;;;;;;5033599;28;20033;-57
2022/11/26 02:10:34;;;;;;;11.50;7.72;;;6.70;90.50;;;;;;5033458;28;20032;-56
2022/11/26 02:13:00;;;;;;;11.20;7.05;;;6.70;90.50;;;;;;5025915;28;20464;-59
2022/11/26 02:15:29;;;;;;;11.10;7.95;;;6.70;90.50;;;;;;5035434;28;20036;-58
2022/11/26 02:18:03;;;;;;;12.73;8.20;;;6.80;90.50;;;;;;5034915;28;20021;-57
2022/11/26 02:21:01;;;;;;;12.20;8.50;;;6.80;90.40;;;;;;5035759;28;20033;-57
2022/11/26 02:24:06;;;;;;;11.27;7.63;;;6.80;90.30;;;;;;5034368;28;20362;-57
2022/11/26 02:27:15;;;;;;;10.95;7.20;;;6.80;90.30;;;;;;5034832;28;20029;-57
2022/11/26 02:30:05;;;;;;;11.57;7.47;;;6.80;90.30;;;;;;5032415;28;20069;-58
2022/11/26 02:33:00;;;;;;;11.65;7.53;;;6.80;90.30;;;;;;5026538;28;20057;-57
2022/11/26 02:35:36;;;;;;;11.63;7.53;;;6.80;90.40;;;;;;5036052;28;20052;-57
2022/11/26 02:38:12;;;;;;;9.30;7.00;;;6.80;90.50;;;;;;5034010;28;20786;-57
2022/11/26 02:40:37;;;;;;;10.70;7.60;;;6.80;90.50;;;;;;5027698;28;20037;-58
2022/11/26 02:43:03;;;;;;;11.77;7.45;;;6.80;90.50;;;;;;5034389;28;20032;-57
2022/11/26 02:45:37;;;;;;;12.60;8.43;;;6.80;90.40;;;;;;5035791;28;20511;-58
2022/11/26 02:48:07;;;;;;;10.30;6.88;;;6.80;90.30;;;;;;5033210;28;20366;-58
2022/11/26 02:50:49;;;;;;;10.27;7.20;;;6.80;90.40;;;;;;5034487;28;20519;-57
2022/11/26 02:53:18;;;;;;;11.38;7.93;;;6.80;90.30;;;;;;5028426;28;20026;-57
2022/11/26 02:55:48;;;;;;;11.32;7.65;;;6.90;90.40;;;;;;5032538;28;20052;-57
2022/11/26 02:58:14;;;;;;;12.18;7.95;;;6.80;90.40;;;;;;5031310;28;20033;-57
2022/11/26 03:00:41;;;;;;;11.50;7.90;;;6.80;90.40;;;;;;5038060;28;20022;-58
2022/11/26 03:03:22;;;;;;;9.80;6.95;;;6.90;90.50;;;;;;5052854;28;20034;-58
2022/11/26 03:05:52;;;;;;;11.23;7.77;;;6.90;90.40;;;;;;5051396;28;20029;-57
2022/11/26 03:08:18;;;;;;;9.50;6.68;;;6.90;90.40;;;;;;5052603;28;20029;-58
2022/11/26 03:10:44;;;;;;;9.70;7.47;;;6.90;90.40;;;;;;5035628;28;20022;-58
2022/11/26 03:13:10;;;;;;;11.27;7.70;;;6.90;90.50;;;;;;5053802;28;20383;-57
2022/11/26 03:15:35;;;;;;;10.38;6.97;;;6.90;90.50;;;;;;5052316;28;20043;-58
2022/11/26 03:18:01;;;;;;;10.98;6.85;;;6.90;90.40;;;;;;5051862;28;20055;-57
2022/11/26 03:20:26;;;;;;;11.55;7.03;;;6.90;90.40;;;;;;5052268;28;20092;-57
2022/11/26 03:22:52;;;;;;;9.50;6.75;;;6.90;90.40;;;;;;5047400;28;20523;-57
2022/11/26 03:25:18;;;;;;;11.40;7.05;;;6.90;90.40;;;;;;5054568;28;20081;-58
2022/11/26 03:27:43;;;;;;;9.50;7.13;;;6.90;90.50;;;;;;5053031;28;20425;-56
2022/11/26 03:30:10;;;;;;;9.93;7.22;;;6.90;90.50;;;;;;5053976;28;20031;-56
2022/11/26 03:32:35;;;;;;;9.27;6.63;;;6.90;90.50;;;;;;5053917;28;20029;-57
2022/11/26 03:35:02;;;;;;;9.75;7.05;;;6.90;90.50;;;;;;5053862;28;20104;-56
2022/11/26 03:37:27;;;;;;;10.68;6.95;;;6.90;90.50;;;;;;5051704;28;20036;-57
2022/11/26 03:39:53;;;;;;;10.00;6.63;;;6.90;90.50;;;;;;5053453;28;20037;-57
2022/11/26 03:42:18;;;;;;;12.35;7.53;;;6.90;90.50;;;;;;5036248;28;20025;-57
2022/11/26 03:44:44;;;;;;;9.15;6.90;;;6.90;90.50;;;;;;5052016;28;20038;-58
2022/11/26 03:47:10;;;;;;;10.70;7.30;;;6.90;90.50;;;;;;5052378;28;20035;-57
2022/11/26 03:49:35;;;;;;;9.73;7.50;;;6.90;90.60;;;;;;5053508;28;20033;-58
2022/11/26 03:52:01;;;;;;;9.75;6.63;;;6.90;90.50;;;;;;5054290;28;20033;-58
2022/11/26 03:54:27;;;;;;;9.52;6.50;;;6.90;90.60;;;;;;5053691;28;20029;-57
2022/11/26 03:56:52;;;;;;;10.15;6.78;;;6.90;90.50;;;;;;5051931;28;20056;-57
2022/11/26 03:59:18;;;;;;;8.25;6.07;;;6.90;90.50;;;;;;5049208;28;20036;-56
2022/11/26 04:01:43;;;;;;;9.38;6.50;;;6.90;90.40;;;;;;5053249;28;20037;-57
2022/11/26 04:04:09;;;;;;;10.07;6.32;;;6.90;90.70;;;;;;5052870;28;20028;-57
2022/11/26 04:06:35;;;;;;;8.75;5.95;;;7.00;90.50;;;;;;5051741;28;20036;-57
2022/11/26 04:09:00;;;;;;;8.77;6.60;;;7.00;90.50;;;;;;5053513;28;20025;-57
2022/11/26 04:11:26;;;;;;;8.57;6.43;;;7.00;90.50;;;;;;5052478;28;20049;-57
2022/11/26 04:13:52;;;;;;;9.45;6.93;;;7.00;90.50;;;;;;5052932;28;20060;-58
2022/11/26 04:16:19;;;;;;;8.75;6.25;;;7.00;90.50;;;;;;5052527;28;20046;-57
2022/11/26 04:18:45;;;;;;;9.30;6.40;;;7.00;90.50;;;;;;5053431;28;20030;-58
2022/11/26 04:21:11;;;;;;;8.50;6.47;;;7.00;90.50;;;;;;5053126;28;20039;-56
2022/11/26 04:23:36;;;;;;;10.85;6.93;;;7.00;90.50;;;;;;5053281;28;20021;-57
2022/11/26 04:26:02;;;;;;;10.48;6.68;;;7.00;90.50;;;;;;5052326;28;20036;-58
2022/11/26 04:28:28;;;;;;;9.32;6.70;;;7.00;90.50;;;;;;5052718;28;20025;-56
2022/11/26 04:30:53;;;;;;;9.30;6.63;;;7.00;90.50;;;;;;5052458;28;20021;-57
2022/11/26 04:33:19;;;;;;;9.98;6.32;;;7.00;90.50;;;;;;5035831;28;20017;-57
2022/11/26 04:35:45;;;;;;;8.93;6.35;;;7.00;90.80;;;;;;5052619;28;20044;-57
2022/11/26 04:38:11;;;;;;;9.05;6.15;;;7.00;90.60;;;;;;5051757;28;20018;-58
2022/11/26 04:40:36;;;;;;;10.18;6.35;;;7.00;90.60;;;;;;5053049;28;20157;-56
2022/11/26 04:43:02;;;;;;;9.55;6.63;;;7.00;90.50;;;;;;5052539;28;20051;-56
2022/11/26 04:45:28;;;;;;;9.73;6.50;;;7.00;90.60;;;;;;5051258;28;20038;-57
2022/11/26 04:47:54;;;;;;;9.65;6.30;;;7.00;90.60;;;;;;5052272;28;20025;-58
2022/11/26 04:50:19;;;;;;;8.65;5.97;;;7.00;90.50;;;;;;5052622;28;20022;-56
2022/11/26 04:52:48;;;;;;;8.98;6.28;;;7.00;90.50;;;;;;5052083;28;20005;-57
2022/11/26 04:55:15;;;;;;;8.80;5.95;;;7.00;90.60;;;;;;5052584;28;20032;-58
2022/11/26 04:57:41;;;;;;;8.75;6.22;;;7.00;90.90;;;;;;5050828;28;20030;-56
2022/11/26 05:00:07;;;;;;;9.18;6.35;;;7.00;90.60;;;;;;5052163;28;20036;-58
2022/11/26 05:02:32;;;;;;;8.43;5.88;;;7.00;90.60;;;;;;5052146;28;20018;-58
2022/11/26 05:04:59;;;;;;;9.52;5.93;;;7.00;90.60;;;;;;5051812;28;20041;-57
2022/11/26 05:07:25;;;;;;;9.25;6.80;;;7.00;90.60;;;;;;5052085;28;20028;-57
2022/11/26 05:09:50;;;;;;;8.65;6.03;;;7.10;90.60;;;;;;5051565;28;20026;-56
2022/11/26 05:12:16;;;;;;;9.07;6.72;;;7.10;90.50;;;;;;5052228;28;20002;-58
2022/11/26 05:14:42;;;;;;;8.38;5.80;;;7.00;90.50;;;;;;5052185;28;20049;-58
2022/11/26 05:17:07;;;;;;;8.70;6.05;;;7.00;90.50;;;;;;5051891;28;20026;-57
2022/11/26 05:19:33;;;;;;;8.27;6.15;;;7.10;90.60;;;;;;5052024;28;20025;-58
2022/11/26 05:21:59;;;;;;;10.40;6.47;;;7.00;90.50;;;;;;5051894;28;20112;-58
2022/11/26 05:24:25;;;;;;;9.63;6.72;;;7.10;90.60;;;;;;5052009;28;20025;-57
2022/11/26 05:26:50;;;;;;;9.10;6.28;;;7.10;90.60;;;;;;5051858;28;20049;-56
2022/11/26 05:29:16;;;;;;;8.77;5.72;;;7.00;90.60;;;;;;5052357;28;20022;-56
2022/11/26 05:31:41;;;;;;;12.98;6.93;;;7.00;90.50;;;;;;5051755;28;20097;-57
2022/11/26 05:34:07;;;;;;;9.90;6.80;;;7.00;90.60;;;;;;5052346;28;20021;-58
2022/11/26 05:36:33;;;;;;;9.30;6.47;;;7.00;90.60;;;;;;5052589;28;20046;-58
2022/11/26 05:38:58;;;;;;;7.85;5.93;;;7.00;90.70;;;;;;5051621;28;20038;-57
2022/11/26 05:41:24;;;;;;;9.55;6.55;;;7.00;90.70;;;;;;5051995;28;20018;-56
2022/11/26 05:43:50;;;;;;;10.25;6.90;;;6.90;90.70;;;;;;5051223;28;20038;-56
2022/11/26 05:46:17;;;;;;;10.00;6.95;;;6.90;90.80;;;;;;5051624;28;20078;-58
2022/11/26 05:48:43;;;;;;;9.95;7.00;;;6.90;90.70;;;;;;5051470;28;20026;-56
2022/11/26 05:51:08;;;;;;;10.35;6.97;;;6.90;90.80;;;;;;5052955;28;20039;-58
2022/11/26 05:53:34;;;;;;;10.55;6.38;;;6.90;90.80;;;;;;5051499;28;20108;-56
2022/11/26 05:56:00;;;;;;;9.75;6.22;;;6.90;90.90;;;;;;5051488;28;20026;-58
2022/11/26 05:58:25;;;;;;;10.07;6.82;;;6.90;90.90;;;;;;5051406;28;20037;-58
2022/11/26 06:00:51;;;;;;;8.90;6.57;;;6.90;90.90;;;;;;5051801;28;20051;-58
2022/11/26 06:03:17;;;;;;;9.95;7.25;;;6.90;91.00;;;;;;5051196;28;20040;-57
2022/11/26 06:05:43;;;;;;;11.85;7.40;;;6.90;90.90;;;;;;5051377;28;20057;-57
2022/11/26 06:08:08;;;;;;;8.55;6.13;;;6.90;91.00;;;;;;5053448;28;20026;-58
2022/11/26 06:10:34;;;;;;;11.38;6.68;;;6.90;91.00;;;;;;5053724;28;20033;-56
2022/11/26 06:13:00;;;;;;;9.80;7.43;;;6.90;91.20;;;;;;5042517;28;20044;-57
2022/11/26 06:15:25;;;;;;;9.93;6.85;;;6.90;90.90;;;;;;5055980;28;20052;-57
2022/11/26 06:17:51;;;;;;;9.27;6.43;;;6.90;90.90;;;;;;5054481;28;20044;-56
2022/11/26 06:20:16;;;;;;;9.40;6.75;;;6.80;90.90;;;;;;5037049;28;20029;-58
2022/11/26 06:22:43;;;;;;;9.32;6.78;;;6.80;90.90;;;;;;5055413;28;20039;-56
2022/11/26 06:25:12;;;;;;;10.93;7.05;;;6.80;90.90;;;;;;5054633;28;20022;-57
2022/11/26 06:27:38;;;;;;;10.00;7.20;;;6.80;90.90;;;;;;5054653;28;20049;-58
2022/11/26 06:30:05;;;;;;;10.63;7.65;;;6.90;90.90;;;;;;5055579;28;20018;-57
2022/11/26 06:32:32;;;;;;;10.02;7.13;;;6.80;90.90;;;;;;5036854;28;20032;-58
2022/11/26 06:34:57;;;;;;;9.93;6.60;;;6.80;90.90;;;;;;5054623;28;20029;-58
2022/11/26 06:37:23;;;;;;;8.38;6.25;;;6.80;91.00;;;;;;5054540;28;20080;-57
2022/11/26 06:39:50;;;;;;;9.50;6.53;;;6.80;91.10;;;;;;5054777;28;20021;-56
2022/11/26 06:42:15;;;;;;;8.82;6.28;;;6.80;91.10;;;;;;5054759;28;20014;-58
2022/11/26 06:44:41;;;;;;;8.63;5.57;;;6.80;91.20;;;;;;5055702;28;20072;-57
2022/11/26 06:47:10;;;;;;;8.35;6.00;;;6.80;91.20;;;;;;5054441;28;20045;-58
2022/11/26 06:49:36;;;;;;;8.80;6.13;;;6.80;91.10;;;;;;5054692;28;20040;-56
2022/11/26 06:52:02;;;;;;;8.25;5.90;;;6.80;91.10;;;;;;5055446;28;20459;-58
2022/11/26 06:54:27;;;;;;;9.15;6.03;;;6.80;91.10;;;;;;5055169;28;20029;-58
2022/11/26 06:56:53;;;;;;;8.93;6.15;;;6.90;91.10;;;;;;5054949;28;20026;-57
2022/11/26 06:59:19;;;;;;;7.75;5.72;;;6.80;91.30;;;;;;5053641;28;20013;-58
2022/11/26 07:01:45;;;;;;;7.82;6.13;;;6.90;91.10;;;;;;5053702;28;20060;-57
2022/11/26 07:04:12;;;;;;;7.78;5.82;;;6.90;91.10;;;;;;5054312;28;20029;-58
2022/11/26 07:06:37;;;;;;;7.78;5.85;;;6.90;91.10;;;;;;5054561;28;20036;-59
2022/11/26 07:09:07;;;;;;;9.15;5.85;;;6.90;91.10;;;;;;5053421;28;20025;-56
2022/11/26 07:11:33;;;;;;;7.53;5.65;;;6.90;91.10;;;;;;5054157;28;20048;-57
2022/11/26 07:14:00;;;;;;;8.68;5.97;;;6.90;91.00;;;;;;5054279;28;20030;-56
2022/11/26 07:16:26;;;;;;;8.45;5.80;;;6.80;91.10;;;;;;5054852;28;20029;-57
2022/11/26 07:18:54;;;;;;;7.90;5.57;;;6.80;91.20;;;;;;5053616;28;20033;-56
2022/11/26 07:21:20;;;;;;;8.77;6.32;;;6.90;91.20;;;;;;5054614;28;20029;-57
2022/11/26 07:23:46;;;;;;;7.57;5.50;;;6.80;91.10;;;;;;5054284;28;20053;-57
2022/11/26 07:26:14;;;;;;;7.13;5.00;;;6.90;91.10;;;;;;5054714;28;20028;-58
2022/11/26 07:28:40;;;;;;;7.70;5.50;;;6.90;91.20;;;;;;5054137;28;20025;-56
2022/11/26 07:31:11;;;;;;;8.40;5.93;;;6.90;91.20;;;;;;5052819;28;20056;-57
2022/11/26 07:33:37;;;;;;;9.07;6.05;;;6.90;91.10;;;;;;5053249;28;20448;-56
2022/11/26 07:36:09;;;;;;;7.28;5.65;;;6.90;91.10;;;;;;5053020;28;20036;-57
2022/11/26 07:38:35;;;;;;;9.77;6.75;;;6.90;91.10;;;;;;5052760;28;20045;-55
2022/11/26 07:41:06;;;;;;;8.02;5.63;;;6.80;91.10;;;;;;5053075;28;20733;-57
2022/11/26 07:43:36;;;;;;;8.97;6.17;;;6.80;91.20;;;;;;5053788;28;20033;-58
2022/11/26 07:46:03;;;;;;;8.50;6.00;;;6.80;91.30;;;;;;5053752;28;20282;-56
2022/11/26 07:48:30;;;;;;;9.88;6.38;;;6.80;91.30;;;;;;5042945;28;20033;-57
2022/11/26 07:50:56;;;;;;;8.93;5.78;;;6.90;91.30;;;;;;5051842;28;20025;-58
2022/11/26 07:53:22;;;;;;;8.50;6.22;;;6.90;91.30;;;;;;5053738;28;20025;-58
2022/11/26 07:55:48;;;;;;;8.60;6.13;;;6.90;91.30;;;;;;5053198;28;20028;-56
2022/11/26 07:58:13;;;;;;;10.93;6.85;;;6.90;91.20;;;;;;5051972;28;20026;-56
2022/11/26 08:00:39;;;;;;;9.82;6.55;;;6.90;91.20;;;;;;5052027;28;20055;-58
2022/11/26 08:03:05;;;;;;;9.07;5.95;;;6.90;91.20;;;;;;5042719;28;20029;-58
2022/11/26 08:05:30;;;;;;;9.85;6.95;;;6.90;91.20;;;;;;5053173;28;20037;-56
2022/11/26 08:07:56;;;;;;;10.63;7.18;;;6.90;91.30;;;;;;5051701;28;20084;-57
2022/11/26 08:10:22;;;;;;;9.43;6.43;;;6.90;91.30;;;;;;5050530;28;20483;-59
2022/11/26 08:12:47;;;;;;;8.18;6.05;;;6.90;91.20;;;;;;5052767;28;20025;-57
2022/11/26 08:15:13;;;;;;;10.55;7.10;;;6.80;91.20;;;;;;5052445;28;20029;-58
2022/11/26 08:17:39;;;;;;;9.00;6.93;;;6.80;91.20;;;;;;5049130;28;20009;-58
2022/11/26 08:20:08;;;;;;;8.90;5.95;;;6.90;91.30;;;;;;5056603;28;20032;-57
2022/11/26 08:22:34;;;;;;;9.50;6.18;;;6.80;91.20;;;;;;5058086;28;20037;-57
2022/11/26 08:24:59;;;;;;;9.07;6.15;;;6.90;91.30;;;;;;5057696;28;20045;-55
2022/11/26 08:27:25;;;;;;;7.65;5.38;;;6.90;91.30;;;;;;5057521;28;20081;-58
2022/11/26 08:29:50;;;;;;;8.82;6.50;;;6.90;91.20;;;;;;5056268;28;20055;-57
2022/11/26 08:32:16;;;;;;;10.18;6.47;;;6.90;91.20;;;;;;5056738;28;20033;-58
2022/11/26 08:34:42;;;;;;;8.85;6.07;;;6.90;91.20;;;;;;5054909;28;20025;-55
2022/11/26 08:37:07;;;;;;;8.48;6.13;;;6.80;91.20;;;;;;5054477;28;20044;-55
2022/11/26 08:39:33;;;;;;;7.45;5.38;;;6.80;91.20;;;;;;5055467;28;20029;-58
2022/11/26 08:41:58;;;;;;;9.25;5.55;;;6.80;91.20;;;;;;5055158;28;20027;-56
2022/11/26 08:44:24;;;;;;;8.20;5.57;;;6.90;91.20;;;;;;5054849;28;20025;-56
2022/11/26 08:46:50;;;;;;;9.27;6.03;;;6.90;91.30;;;;;;5054572;28;20025;-57
2022/11/26 08:49:15;;;;;;;8.32;6.15;;;6.90;91.20;;;;;;5056495;28;20021;-55
2022/11/26 08:51:42;;;;;;;8.32;5.93;;;6.90;91.20;;;;;;5057003;28;20025;-58
2022/11/26 08:54:08;;;;;;;9.02;6.20;;;6.90;91.30;;;;;;5056628;28;20049;-57
2022/11/26 08:56:34;;;;;;;8.43;6.72;;;6.90;91.50;;;;;;5055554;28;20018;-58
2022/11/26 08:58:59;;;;;;;8.00;6.07;;;6.90;91.30;;;;;;5054167;28;20032;-58
2022/11/26 09:01:28;;;;;;;8.88;5.70;;;6.90;91.30;;;;;;5054058;28;20036;-57
2022/11/26 09:03:56;;;;;;;7.25;5.45;;;6.90;91.30;;;;;;5054644;28;20085;-57
2022/11/26 09:06:24;;;;;;;8.05;5.63;;;6.90;91.30;;;;;;5054195;28;20021;-58
2022/11/26 09:11:45;;;;;;;8.05;5.78;;;6.90;91.20;;;;;;5054348;28;20033;-56
2022/11/26 09:14:13;;;;;;;8.68;5.70;;;6.90;91.20;;;;;;5053151;28;20025;-58
2022/11/26 09:16:39;;;;;;;9.15;5.88;;;6.90;91.10;;;;;;5055017;28;20040;-58
2022/11/26 09:19:05;;;;;;;8.65;5.50;;;6.90;91.20;;;;;;5053684;28;20021;-58
2022/11/26 09:21:33;;;;;;;7.15;5.28;;;6.90;91.20;;;;;;5054911;28;20033;-58
2022/11/26 09:23:59;;;;;;;7.07;5.43;;;6.90;91.20;;;;;;5053802;28;20077;-59
2022/11/26 09:26:24;;;;;;;7.43;5.57;;;6.90;91.20;;;;;;5055411;28;20044;-58
2022/11/26 09:28:51;;;;;;;7.55;5.70;;;7.00;91.20;;;;;;5051849;28;20123;-58
2022/11/26 09:31:17;;;;;;;8.05;6.00;;;7.00;91.20;;;;;;5053390;28;20033;-56
2022/11/26 09:33:44;;;;;;;8.68;5.82;;;7.00;91.20;;;;;;5055155;28;20052;-56
2022/11/26 09:36:13;;;;;;;8.15;5.53;;;7.00;91.30;;;;;;5052044;28;20093;-57
2022/11/26 09:38:39;;;;;;;8.93;6.10;;;7.00;91.30;;;;;;5048896;28;20018;-58
2022/11/26 09:41:10;;;;;;;7.05;5.20;;;7.00;91.30;;;;;;5050242;28;20167;-56
2022/11/26 09:43:55;;;;;;;8.90;5.47;;;7.00;91.30;;;;;;5050583;28;20038;-58
2022/11/26 09:46:35;;;;;;;7.95;5.90;;;7.00;91.30;;;;;;5049399;28;20079;-58
2022/11/26 09:49:02;;;;;;;8.27;5.60;;;7.00;91.30;;;;;;5050863;28;20006;-58
2022/11/26 09:51:29;;;;;;;9.00;5.90;;;7.10;91.30;;;;;;5054765;28;20041;-57
2022/11/26 09:53:56;;;;;;;8.88;6.00;;;7.10;91.20;;;;;;5054218;28;20026;-56
2022/11/26 09:56:26;;;;;;;8.15;5.68;;;7.10;91.20;;;;;;5053133;28;20029;-58
2022/11/26 09:58:56;;;;;;;7.97;6.07;;;7.10;91.00;;;;;;5037224;28;20033;-58
2022/11/26 10:01:23;;;;;;;8.35;6.15;;;7.10;91.00;;;;;;5054121;28;20036;-58
2022/11/26 10:03:50;;;;;;;9.00;6.13;;;7.10;91.00;;;;;;5054066;28;20017;-57
2022/11/26 10:06:53;;;;;;;9.13;5.88;;;7.10;91.00;;;;;;5053580;28;20021;-57
2022/11/26 10:09:57;;;;;;;9.25;6.10;;;7.10;90.90;;;;;;5050930;28;20021;-57
2022/11/26 10:12:42;;;;;;;9.18;6.43;;;7.00;90.80;;;;;;5049595;28;20026;-58
2022/11/26 10:15:16;;;;;;;7.57;5.47;;;7.00;90.80;;;;;;5049363;28;20023;-57
2022/11/26 10:17:56;;;;;;;9.07;6.15;;;7.00;91.00;;;;;;5045449;28;20022;-57
2022/11/26 10:20:54;;;;;;;8.43;5.95;;;7.00;91.00;;;;;;5046264;28;20041;-56
2022/11/26 10:23:26;;;;;;;8.82;6.25;;;7.00;91.30;;;;;;5047215;28;20022;-57
2022/11/26 10:25:58;;;;;;;9.10;5.93;;;7.00;91.10;;;;;;5045878;28;20113;-57
2022/11/26 10:28:29;;;;;;;10.30;5.82;;;6.90;91.10;;;;;;5040876;28;20076;-58
2022/11/26 10:31:01;;;;;;;7.20;5.28;;;6.90;91.20;;;;;;5044193;28;20032;-55
2022/11/26 10:33:32;;;;;;;7.57;5.28;;;6.90;91.10;;;;;;5039745;28;20037;-58
2022/11/26 10:35:57;;;;;;;6.82;5.50;;;6.90;91.20;;;;;;5044751;28;20046;-58
2022/11/26 10:38:23;;;;;;;7.95;5.53;;;6.90;91.30;;;;;;5044817;28;20041;-57
2022/11/26 10:40:49;;;;;;;7.43;5.20;;;6.90;91.30;;;;;;5043903;28;20484;-57
2022/11/26 10:43:21;;;;;;;7.07;5.35;;;6.90;91.30;;;;;;5045959;28;20029;-56
2022/11/26 10:45:55;;;;;;;7.57;5.18;;;6.90;91.20;;;;;;5046348;28;20025;-57
2022/11/26 10:48:29;;;;;;;7.07;5.00;;;6.90;91.20;;;;;;5043957;28;20030;-58
2022/11/26 10:51:14;;;;;;;7.03;4.97;;;6.90;91.20;;;;;;5047996;28;20026;-58
2022/11/26 10:53:59;;;;;;;8.45;5.60;;;6.90;91.20;;;;;;5045241;28;20021;-58
2022/11/26 10:56:35;;;;;;;6.55;4.50;;;7.00;91.20;;;;;;5048213;28;20099;-57
2022/11/26 10:59:27;;;;;;;6.82;4.97;;;6.90;91.20;;;;;;5049684;28;20109;-55
2022/11/26 11:01:59;;;;;;;7.90;4.78;;;6.90;91.20;;;;;;5045947;28;20028;-55
2022/11/26 11:04:28;;;;;;;7.22;4.95;;;6.90;91.40;;;;;;5042252;28;20029;-56
2022/11/26 11:06:53;;;;;;;6.80;5.13;;;6.90;91.30;;;;;;5048476;28;20505;-56
2022/11/26 11:09:30;;;;;;;7.13;4.72;;;6.90;91.40;;;;;;5047705;28;20061;-55
2022/11/26 11:12:13;;;;;;;7.80;4.88;;;6.90;91.40;;;;;;5042405;28;20025;-57
2022/11/26 11:14:40;;;;;;;7.45;5.43;;;6.90;91.30;;;;;;5042240;28;20022;-55
2022/11/26 11:17:17;;;;;;;7.47;5.13;;;6.90;91.50;;;;;;5044172;28;20025;-57
2022/11/26 11:19:43;;;;;;;6.75;5.07;;;6.90;91.40;;;;;;5045862;28;20028;-57
2022/11/26 11:22:19;;;;;;;7.85;4.95;;;6.90;91.40;;;;;;5044587;28;20045;-57
2022/11/26 11:24:45;;;;;;;6.60;5.07;;;7.00;91.50;;;;;;5044449;28;20033;-57
2022/11/26 11:27:45;;;;;;;6.38;4.72;;;7.00;91.60;;;;;;5040752;28;20089;-57
2022/11/26 11:30:31;;;;;;;7.53;4.82;;;7.00;91.40;;;;;;5041486;28;20093;-57
2022/11/26 11:33:10;;;;;;;6.40;4.72;;;7.00;91.40;;;;;;5028101;28;20096;-56
2022/11/26 11:35:36;;;;;;;6.35;4.28;;;7.00;91.40;;;;;;5037892;28;20097;-56
2022/11/26 11:38:01;;;;;;;6.10;4.68;;;7.00;91.40;;;;;;5036361;28;20465;-55
2022/11/26 11:40:29;;;;;;;6.57;4.57;;;7.00;91.40;;;;;;5037668;28;20029;-56
2022/11/26 11:43:01;;;;;;;7.32;5.05;;;7.00;91.40;;;;;;5040253;28;20392;-57
2022/11/26 11:45:33;;;;;;;5.07;3.95;;;7.00;91.30;;;;;;5044408;28;20036;-56
2022/11/26 11:48:35;;;;;;;5.72;4.68;;;7.00;91.30;;;;;;5043967;28;20028;-55
2022/11/26 11:51:16;;;;;;;5.40;4.45;;;7.00;91.20;;;;;;5036363;28;20641;-56
2022/11/26 11:54:02;;;;;;;6.40;4.60;;;7.00;91.30;;;;;;5036116;28;20022;-57
2022/11/26 11:56:35;;;;;;;7.93;4.82;;;7.00;91.40;;;;;;5043761;28;20105;-56
2022/11/26 11:59:18;;;;;;;7.65;5.28;;;7.00;91.50;;;;;;5044988;28;20017;-57
2022/11/26 12:01:57;;;;;;;6.35;4.40;;;7.00;91.40;;;;;;5043398;28;20090;-57
2022/11/26 12:04:45;;;;;;;6.32;4.60;;;7.00;91.30;;;;;;5038449;28;20033;-55
2022/11/26 12:07:37;;;;;;;6.30;4.90;;;7.00;91.10;;;;;;5036162;28;20085;-57
2022/11/26 12:10:24;;;;;;;6.00;4.60;;;7.00;91.20;;;;;;5021251;28;20033;-57
2022/11/26 12:12:55;;;;;;;7.10;4.78;;;6.90;91.10;;;;;;5036790;28;20014;-56
2022/11/26 12:15:37;;;;;;;7.10;4.60;;;6.90;91.20;;;;;;5039295;28;20033;-56
2022/11/26 12:18:26;;;;;;;5.93;4.68;;;6.90;91.10;;;;;;5040157;28;20065;-55
2022/11/26 12:21:05;;;;;;;6.72;4.45;;;6.90;91.10;;;;;;5039676;28;20119;-56
2022/11/26 12:23:58;;;;;;;5.80;4.63;;;6.80;91.20;;;;;;5043238;28;20024;-55
2022/11/26 12:26:40;;;;;;;6.70;5.05;;;6.80;91.10;;;;;;5050763;28;20021;-56
2022/11/26 12:29:29;;;;;;;6.38;4.68;;;6.80;91.60;;;;;;5052430;28;20056;-57
2022/11/26 12:32:08;;;;;;;6.85;4.63;;;6.80;91.70;;;;;;5036850;28;20029;-57
2022/11/26 12:34:39;;;;;;;7.70;4.63;;;6.80;91.30;;;;;;5054098;28;20139;-56
2022/11/26 12:37:11;;;;;;;;;;;6.80;91.70;;;;;;5051045;28;20479;-55
2022/11/26 12:39:59;;;;;;;5.82;4.32;;;6.70;91.50;;;;;;5055400;28;19899;-55
2022/11/26 12:42:44;;;;;;;5.82;4.47;;;6.70;91.60;;;;;;5051812;28;20049;-56
2022/11/26 12:45:47;;;;;;;8.00;4.63;;;6.70;91.50;;;;;;5052988;28;20025;-54
2022/11/26 12:48:30;;;;;;;6.18;4.45;;;6.70;91.30;;;;;;5050385;28;20029;-56
2022/11/26 12:51:06;;;;;;;6.65;4.85;;;6.70;91.50;;;;;;5051376;28;20021;-57
2022/11/26 12:54:02;;;;;;;6.63;4.68;;;6.70;91.50;;;;;;5045419;28;20125;-56
2022/11/26 12:56:40;;;;;;;6.03;4.55;;;6.70;91.30;;;;;;5041596;28;20057;-58
2022/11/26 12:59:32;;;;;;;7.53;4.95;;;6.70;91.40;;;;;;5050274;28;20022;-57
2022/11/26 13:01:59;;;;;;;6.88;4.68;;;6.70;91.40;;;;;;5055154;28;20052;-56
2022/11/26 13:04:27;;;;;;;6.65;4.55;;;6.70;91.50;;;;;;5054031;28;20030;-57
2022/11/26 13:07:14;;;;;;;6.13;5.03;;;6.70;91.60;;;;;;5053941;28;20014;-56
2022/11/26 13:09:46;;;;;;;7.43;4.93;;;6.70;91.50;;;;;;5046048;28;20105;-57
2022/11/26 13:12:20;;;;;;;6.65;4.13;;;6.70;91.70;;;;;;5055484;28;20026;-57
2022/11/26 13:14:56;;;;;;;5.18;4.20;;;6.70;91.70;;;;;;5055211;28;20030;-57